Estaciones Metar próximas

 

LELL - Sabadell, Spain
Distancia a la estación: E 18km
Actualizado: 02/03/2024 08:00
Despejado
Despejado
 Viento del calm
Viento: Calma
Temperatura: 6°C
Rocío: 2°C
Humedad: 76%
Barómetro: 1007 hPa
Resumen: Despejado
Visibilidad: greater than 10 km
2024/03/02 07:00 LELL 020700Z 00000KT CAVOK 06/02 Q1007
LEBL - Barcelona Airpor, Spain
Distancia a la estación: SSE 33km
Actualizado: 02/03/2024 08:00
Despejado
Despejado
 Viento del NO
Viento: NO 7 km/h
Temperatura: 9°C
Sensación Térmica: 8°C
Rocío: 2°C
Humedad: 62%
Barómetro: 1007 hPa
Resumen: Despejado
Visibilidad: greater than 10 km
2024/03/02 07:00 LEBL 020700Z 32004KT 290V350 CAVOK 09/02 Q1007 NOSIG
LERS - Reus (civ/Mil), Spain
Distancia a la estación: SO 75km
Actualizado: 02/03/2024 08:00
Despejado
Despejado
 Viento del NNE
Viento: NNE 9 km/h
Temperatura: 5°C
Sensación Térmica: 3°C
Rocío: 3°C
Humedad: 87%
Barómetro: 1007 hPa
Resumen: Despejado
Visibilidad: greater than 10 km
2024/03/02 07:00 LERS 020700Z 03005KT CAVOK 05/03 Q1007
 
LEGE - Gerona/Costa Bra, Spain
Distancia a la estación: ENE 83km
Actualizado: 02/03/2024 08:00
Despejado
Despejado
 Viento del calm
Viento: Calma
Temperatura: 6°C
Rocío: 2°C
Humedad: 76%
Barómetro: 1006 hPa
Resumen: Despejado
Visibilidad: greater than 10 km
2024/03/02 07:00 LEGE 020700Z 00000KT CAVOK 06/02 Q1006
LFMP - Perpignan/Rivesa, France
Distancia a la estación: NNE 155km
Actualizado: 02/03/2024 08:00
Despejado
Despejado
 Viento del OSO
Viento: OSO 6 km/h
Temperatura: 6°C
Rocío: 3°C
Humedad: 81%
Barómetro: 1004 hPa
Resumen: Despejado
Visibilidad: greater than 10 km
2024/03/02 07:00 LFMP 020700Z AUTO 25003KT CAVOK 06/03 Q1004 NOSIG
LFMK - Carcassonne/Salv, France
Distancia a la estación: N 191km
Actualizado: 02/03/2024 08:00
Muy nuboso
Muy nuboso
 Viento del varies
Viento: varies 4 km/h
Temperatura: 4°C
Rocío: 3°C
Humedad: 93%
Barómetro: 1003 hPa
Nubes: Muy nuboso
Visibilidad: 10 km
Detalle Nubes: Parcialmente nuboso 457 m
Muy nuboso 7010 m
Muy nuboso 7620 m
2024/03/02 07:00 LFMK 020700Z AUTO VRB02KT 9999 SCT015 BKN230 BKN250 04/03 Q1003 TEMPO BKN012
 
LEHC - Huesca-Pirineos, Spain
Distancia a la estación: ONO 193km
Actualizado: 02/03/2024 08:00
Lluvia débil, Muy nuboso
Lluvia débil, Muy nuboso
 Viento del varies
Viento: varies 2 km/h
Temperatura: 5°C
Rocío: 4°C
Humedad: 93%
Barómetro: 1006 hPa
Resumen: Lluvia débil
Nubes: Muy nuboso
Visibilidad: 10 km
Detalle Nubes: Parcialmente nuboso 1463 m
Muy nuboso 1829 m
Muy nuboso 2134 m
2024/03/02 07:00 LEHC 020700Z AUTO VRB01KT 9999 -RA SCT048 BKN060 BKN070 05/04 Q1006
LFMU - Beziers/Vias, France
Distancia a la estación: NNE 232km
Actualizado: 02/03/2024 08:00
Muy nuboso
Muy nuboso
 Viento del NNE
Viento: NNE 11 km/h
Temperatura: 9°C
Sensación Térmica: 7°C
Rocío: 7°C
Humedad: 87%
Barómetro: 1005 hPa
Nubes: Muy nuboso
Visibilidad: 10 km
Detalle Nubes: Parcialmente nuboso 488 m
Muy nuboso 732 m
2024/03/02 07:00 LFMU 020700Z AUTO 03006KT 9999 SCT016 BKN024 09/07 Q1005 TEMPO BKN012
LEPA - Palma De Mallorc, Spain
Distancia a la estación: SSE 233km
Actualizado: 02/03/2024 08:00
Despejado
Despejado
 Viento del OSO
Viento: OSO 19 km/h
Temperatura: 13°C
Rocío: 8°C
Humedad: 72%
Barómetro: 1010 hPa
Resumen: Despejado
Visibilidad: greater than 10 km
2024/03/02 07:00 LEPA 020700Z 25010KT CAVOK 13/08 Q1010 NOSIG
 
LFBO - Toulouse/Blagnac, France
Distancia a la estación: N 236km
Actualizado: 02/03/2024 08:00
Despejado
Despejado
 Viento del varies
Viento: varies 4 km/h
Temperatura: 7°C
Rocío: 5°C
Humedad: 87%
Barómetro: 1003 hPa
Resumen: Despejado
Visibilidad: greater than 10 km
2024/03/02 07:00 LFBO 020700Z AUTO VRB02KT CAVOK 07/05 Q1003 TEMPO BKN013 BECMG 14012KT
LFBT - Tarbes/Ossun, France
Distancia a la estación: NO 239km
Actualizado: 02/03/2024 08:00
Cubierto
Cubierto
 Viento del varies
Viento: varies 6 km/h
Temperatura: 8°C
Rocío: 5°C
Humedad: 82%
Barómetro: 1001 hPa
Nubes: Cubierto
Visibilidad: 10 km
Detalle Nubes: Nubes dispersas 2316 m
Cubierto 2865 m
2024/03/02 07:00 LFBT 020700Z AUTO VRB03KT 9999 FEW076 OVC094 08/05 Q1001 NOSIG
LEZG - Zaragoza (mil/Ci, Spain
Distancia a la estación: O 242km
Actualizado: 02/03/2024 08:00
Nubes dispersas
Nubes dispersas
 Viento del OSO
Viento: OSO 7 km/h
Temperatura: 10°C
Sensación Térmica: 9°C
Rocío: 4°C
Humedad: 67%
Barómetro: 1006 hPa
Nubes: Nubes dispersas
Visibilidad: 10 km
Detalle Nubes: Nubes dispersas 2134 m
2024/03/02 07:00 LEZG 020700Z 24004KT 210V280 9999 FEW070 10/04 Q1006